createdAt,value
2022-12-08T00:01:15.052Z,14.30
2022-12-08T00:03:42.377Z,13.57
2022-12-08T00:06:53.274Z,13.07
2022-12-08T00:09:32.070Z,13.17
2022-12-08T00:12:04.063Z,13.87
2022-12-08T00:14:41.848Z,14.17
2022-12-08T00:17:10.049Z,13.40
2022-12-08T00:19:37.012Z,13.43
2022-12-08T00:22:03.453Z,13.83
2022-12-08T00:24:32.389Z,13.03
2022-12-08T00:26:58.737Z,13.07
2022-12-08T00:29:25.599Z,12.43
2022-12-08T00:31:52.630Z,12.37
2022-12-08T00:34:19.602Z,14.17
2022-12-08T00:36:46.334Z,13.10
2022-12-08T00:39:14.006Z,12.47
2022-12-08T00:41:59.079Z,13.13
2022-12-08T00:44:26.057Z,11.67
2022-12-08T00:46:52.412Z,12.33
2022-12-08T00:49:19.388Z,12.37
2022-12-08T00:51:46.075Z,13.43
2022-12-08T00:54:12.667Z,12.00
2022-12-08T00:56:39.071Z,12.73
2022-12-08T00:59:06.941Z,11.43
2022-12-08T01:01:34.821Z,11.90
2022-12-08T01:04:10.464Z,13.03
2022-12-08T01:06:37.168Z,12.60
2022-12-08T01:09:05.238Z,12.93
2022-12-08T01:11:32.060Z,12.27
2022-12-08T01:13:58.540Z,12.97
2022-12-08T01:16:29.266Z,12.43
2022-12-08T01:18:57.748Z,13.13
2022-12-08T01:21:24.553Z,12.63
2022-12-08T01:23:50.990Z,13.50
2022-12-08T01:26:19.146Z,13.60
2022-12-08T01:28:46.762Z,12.53
2022-12-08T01:31:21.307Z,13.17
2022-12-08T01:33:48.698Z,13.30
2022-12-08T01:36:27.335Z,12.67
2022-12-08T01:38:56.853Z,12.77
2022-12-08T01:41:26.051Z,13.20
2022-12-08T01:44:23.440Z,13.30
2022-12-08T01:46:50.451Z,13.47
2022-12-08T01:49:28.443Z,12.73
2022-12-08T01:52:07.100Z,12.80
2022-12-08T01:54:37.088Z,13.27
2022-12-08T01:57:10.177Z,13.20
2022-12-08T01:59:41.414Z,13.07
2022-12-08T02:02:10.715Z,13.00
2022-12-08T02:04:37.585Z,13.03
2022-12-08T02:07:08.319Z,12.57
2022-12-08T02:09:36.683Z,12.77
2022-12-08T02:12:03.395Z,12.77
2022-12-08T02:14:29.839Z,12.77
2022-12-08T02:17:14.650Z,13.33
2022-12-08T02:19:40.962Z,12.73
2022-12-08T02:22:07.290Z,13.57
2022-12-08T02:24:44.867Z,11.97
2022-12-08T02:38:30.189Z,12.73
2022-12-08T02:41:03.820Z,11.80
2022-12-08T02:43:41.258Z,12.43
2022-12-08T02:46:32.983Z,12.53
2022-12-08T02:49:02.162Z,12.00
2022-12-08T02:51:28.637Z,9.93
2022-12-08T02:53:55.659Z,10.20
2022-12-08T02:57:16.665Z,9.93
2022-12-08T03:00:04.797Z,8.47
2022-12-08T03:03:05.572Z,7.80
2022-12-08T03:05:45.056Z,7.90
2022-12-08T03:08:21.906Z,7.77
2022-12-08T03:11:20.348Z,7.70
2022-12-08T03:13:51.976Z,7.87
2022-12-08T03:16:27.974Z,8.63
2022-12-08T03:19:10.837Z,8.33
2022-12-08T03:21:38.826Z,8.10
2022-12-08T03:24:08.020Z,8.00
2022-12-08T03:26:42.219Z,8.67
2022-12-08T03:29:08.672Z,8.23
2022-12-08T03:31:40.574Z,7.53
2022-12-08T03:34:09.668Z,7.50
2022-12-08T03:36:36.410Z,7.67
2022-12-08T03:39:03.450Z,7.63
2022-12-08T03:41:30.015Z,7.90
2022-12-08T03:43:59.504Z,7.67
2022-12-08T03:48:53.883Z,8.03
2022-12-08T03:51:21.352Z,7.53
2022-12-08T03:53:48.570Z,7.73
2022-12-08T03:56:25.779Z,8.47
2022-12-08T03:58:53.151Z,7.93
2022-12-08T04:01:20.216Z,7.97
2022-12-08T04:03:46.736Z,8.70
2022-12-08T04:06:14.363Z,9.00
2022-12-08T04:08:41.030Z,8.97
2022-12-08T04:11:08.100Z,9.30
2022-12-08T04:13:36.322Z,8.97
2022-12-08T04:16:03.477Z,9.80
2022-12-08T04:18:29.885Z,9.57
2022-12-08T04:20:56.405Z,10.13
2022-12-08T04:23:23.390Z,9.60
2022-12-08T04:25:52.490Z,9.47
2022-12-08T04:28:19.147Z,9.43
2022-12-08T04:30:47.775Z,9.93
2022-12-08T04:33:14.207Z,9.60
2022-12-08T04:35:40.607Z,9.47
2022-12-08T04:38:07.117Z,9.57
2022-12-08T04:40:33.657Z,9.30
2022-12-08T04:43:00.087Z,8.80
2022-12-08T04:45:26.525Z,9.93
2022-12-08T04:47:52.905Z,8.63
2022-12-08T04:50:19.470Z,9.03
2022-12-08T04:52:46.073Z,9.30
2022-12-08T04:55:12.599Z,7.87
2022-12-08T04:57:39.123Z,8.03
2022-12-08T05:00:06.810Z,9.00
2022-12-08T05:02:33.756Z,8.97
2022-12-08T05:05:00.298Z,8.57
2022-12-08T05:07:27.580Z,8.97
2022-12-08T05:09:54.033Z,9.17
2022-12-08T05:12:20.502Z,8.13
2022-12-08T05:14:48.227Z,9.03
2022-12-08T05:17:19.036Z,9.47
2022-12-08T05:19:45.522Z,9.53
2022-12-08T05:22:11.981Z,9.00
2022-12-08T05:24:42.509Z,9.60
2022-12-08T05:27:12.218Z,9.20
2022-12-08T05:29:38.708Z,11.90
2022-12-08T05:32:05.444Z,10.87
2022-12-08T05:34:32.064Z,11.43
2022-12-08T05:36:58.570Z,12.10
2022-12-08T05:39:25.020Z,12.63
2022-12-08T05:41:51.521Z,12.17
2022-12-08T05:44:17.950Z,13.00
2022-12-08T05:46:44.340Z,12.10
2022-12-08T05:49:10.861Z,12.03
2022-12-08T05:51:37.295Z,13.10
2022-12-08T05:54:03.783Z,13.03
2022-12-08T05:56:30.191Z,13.73
2022-12-08T05:58:56.480Z,13.47
2022-12-08T06:01:30.432Z,13.07
2022-12-08T06:04:01.577Z,12.77
2022-12-08T06:06:28.766Z,14.07
2022-12-08T06:08:55.212Z,15.03
2022-12-08T06:11:30.752Z,14.30
2022-12-08T06:13:58.200Z,14.20
2022-12-08T06:16:26.600Z,13.97
2022-12-08T06:18:53.458Z,15.60
2022-12-08T06:21:20.466Z,14.57
2022-12-08T06:23:51.892Z,15.07
2022-12-08T06:26:19.532Z,15.57
2022-12-08T06:28:45.994Z,16.37
2022-12-08T06:31:19.107Z,15.20
2022-12-08T06:33:46.016Z,16.20
2022-12-08T06:36:14.575Z,15.03
2022-12-08T06:38:43.564Z,15.30
2022-12-08T06:41:11.914Z,14.73
2022-12-08T06:43:38.754Z,13.57
2022-12-08T06:46:07.577Z,14.33
2022-12-08T06:48:34.038Z,15.50
2022-12-08T06:51:12.289Z,13.90
2022-12-08T06:53:39.857Z,15.23
2022-12-08T06:56:07.180Z,14.40
2022-12-08T06:58:34.004Z,14.07
2022-12-08T07:01:10.347Z,14.63
2022-12-08T07:03:37.961Z,14.80
2022-12-08T07:06:05.835Z,15.13
2022-12-08T07:08:33.473Z,14.33
2022-12-08T07:11:00.221Z,15.07
2022-12-08T07:13:26.565Z,13.97
2022-12-08T07:15:53.009Z,14.83
2022-12-08T07:18:19.442Z,14.23
2022-12-08T07:20:45.846Z,13.57
2022-12-08T07:23:12.336Z,14.70
2022-12-08T07:25:38.739Z,14.83
2022-12-08T07:28:10.602Z,15.33
2022-12-08T07:30:37.371Z,15.93
2022-12-08T07:33:05.773Z,15.63
2022-12-08T07:35:34.730Z,15.50
2022-12-08T07:38:01.467Z,15.20
2022-12-08T07:40:28.136Z,15.17
2022-12-08T07:42:54.558Z,14.87
2022-12-08T07:45:20.953Z,14.43
2022-12-08T07:47:47.412Z,15.50
2022-12-08T07:50:13.727Z,15.30
2022-12-08T07:52:40.052Z,14.20
2022-12-08T07:55:07.279Z,14.30
2022-12-08T07:57:33.642Z,14.83
2022-12-08T07:59:59.985Z,15.20
2022-12-08T08:02:26.616Z,13.47
2022-12-08T08:04:53.338Z,13.53
2022-12-08T08:07:19.829Z,13.53
2022-12-08T08:09:46.307Z,14.07
2022-12-08T08:15:00.602Z,13.57
2022-12-08T08:17:27.440Z,12.30
2022-12-08T08:19:53.895Z,11.47
2022-12-08T08:22:20.224Z,12.00
2022-12-08T08:24:46.508Z,11.67
2022-12-08T08:27:13.999Z,12.57
2022-12-08T08:29:40.318Z,11.90
2022-12-08T08:32:06.782Z,12.80
2022-12-08T08:34:33.126Z,13.60
2022-12-08T08:36:59.656Z,12.97
2022-12-08T08:39:27.255Z,12.80
2022-12-08T08:41:53.646Z,14.07
2022-12-08T08:44:20.072Z,14.33
2022-12-08T08:46:46.539Z,14.17
2022-12-08T08:49:13.085Z,13.60
2022-12-08T08:51:39.611Z,14.03
2022-12-08T08:54:05.962Z,13.93
2022-12-08T08:56:32.513Z,13.47
2022-12-08T08:58:58.997Z,12.97
2022-12-08T09:01:27.664Z,13.10
2022-12-08T09:03:54.917Z,12.10
2022-12-08T09:06:22.667Z,11.30
2022-12-08T09:08:49.619Z,11.83
2022-12-08T09:11:18.584Z,11.57
2022-12-08T09:13:48.327Z,11.80
2022-12-08T09:16:14.853Z,11.97
2022-12-08T09:18:41.321Z,11.07
2022-12-08T09:21:16.575Z,11.23
2022-12-08T09:23:44.463Z,11.33
2022-12-08T09:26:10.833Z,11.97
2022-12-08T09:28:38.145Z,11.67
2022-12-08T09:31:04.775Z,11.37
2022-12-08T09:33:31.316Z,12.30
2022-12-08T09:36:02.165Z,10.73
2022-12-08T09:38:28.482Z,10.50
2022-12-08T09:40:55.079Z,10.00
2022-12-08T09:43:34.382Z,8.93
2022-12-08T09:46:04.308Z,9.10
2022-12-08T09:48:37.094Z,8.87
2022-12-08T09:51:04.975Z,9.57
2022-12-08T09:53:40.398Z,9.07
2022-12-08T09:56:15.227Z,8.27
2022-12-08T09:59:20.458Z,7.90
2022-12-08T10:01:47.315Z,7.77
2022-12-08T10:04:21.833Z,8.00
2022-12-08T10:07:14.310Z,7.37
2022-12-08T10:10:03.925Z,7.53
2022-12-08T10:12:40.041Z,7.37
2022-12-08T10:15:43.829Z,6.57
2022-12-08T10:18:31.736Z,6.90
2022-12-08T10:21:20.429Z,5.40
2022-12-08T10:23:54.067Z,5.73
2022-12-08T10:26:22.359Z,5.40
2022-12-08T10:28:49.042Z,5.40
2022-12-08T10:31:22.152Z,4.30
2022-12-08T10:33:56.933Z,4.00
2022-12-08T10:36:23.355Z,3.67
2022-12-08T10:38:49.786Z,4.33
2022-12-08T10:41:19.603Z,4.17
2022-12-08T10:43:54.002Z,4.77
2022-12-08T10:46:22.820Z,4.73
2022-12-08T10:49:11.410Z,5.17
2022-12-08T10:51:41.034Z,5.03
2022-12-08T10:54:33.168Z,5.53
2022-12-08T10:56:59.832Z,5.80
2022-12-08T10:59:26.638Z,6.67
2022-12-08T11:01:56.102Z,6.40
2022-12-08T11:04:31.876Z,6.60
2022-12-08T11:06:58.384Z,6.40
2022-12-08T11:09:35.344Z,6.80
2022-12-08T11:12:20.489Z,6.63
2022-12-08T11:14:55.582Z,6.00
2022-12-08T11:17:22.069Z,6.67
2022-12-08T11:20:11.174Z,6.77
2022-12-08T11:22:40.142Z,6.20
2022-12-08T11:25:24.401Z,6.03
2022-12-08T11:27:54.803Z,5.83
2022-12-08T11:30:31.132Z,5.57
2022-12-08T11:33:03.461Z,5.37
2022-12-08T11:35:34.923Z,6.23
2022-12-08T11:38:24.122Z,5.73
2022-12-08T11:40:55.265Z,5.83
2022-12-08T11:43:33.770Z,5.47
2022-12-08T11:46:09.777Z,5.00
2022-12-08T11:49:06.219Z,5.13
2022-12-08T11:51:59.739Z,4.87
2022-12-08T11:54:35.190Z,4.97
2022-12-08T11:57:04.639Z,4.73
2022-12-08T11:59:49.473Z,4.40
2022-12-08T12:02:19.660Z,3.83
2022-12-08T12:04:53.146Z,4.13
2022-12-08T12:07:29.584Z,4.20
2022-12-08T12:10:09.425Z,3.87
2022-12-08T12:13:09.871Z,3.97
2022-12-08T12:15:45.340Z,3.80
2022-12-08T12:18:33.351Z,4.13
2022-12-08T12:21:09.690Z,4.23
2022-12-08T12:23:56.840Z,4.20
2022-12-08T12:26:29.458Z,4.83
2022-12-08T12:29:07.315Z,4.30
2022-12-08T12:31:41.567Z,4.97
2022-12-08T12:34:16.718Z,4.87
2022-12-08T12:36:54.236Z,4.90
2022-12-08T12:39:25.040Z,4.67
2022-12-08T12:41:54.827Z,5.47
2022-12-08T12:44:37.841Z,5.07
2022-12-08T12:47:10.982Z,5.80
2022-12-08T12:49:40.523Z,5.20
2022-12-08T12:52:09.939Z,5.63
2022-12-08T12:54:36.311Z,5.70
2022-12-08T12:57:05.857Z,6.10
2022-12-08T12:59:42.505Z,7.00
2022-12-08T13:02:30.512Z,6.57
2022-12-08T13:05:13.745Z,7.03
2022-12-08T13:08:03.396Z,7.47
2022-12-08T13:10:33.464Z,7.20
2022-12-08T13:13:18.114Z,7.47
2022-12-08T13:16:18.443Z,7.43
2022-12-08T13:18:50.866Z,6.90
2022-12-08T13:21:21.099Z,6.93
2022-12-08T13:23:51.118Z,6.80
2022-12-08T13:26:25.693Z,7.10
2022-12-08T13:29:04.257Z,6.97
2022-12-08T13:31:45.053Z,6.67
2022-12-08T13:34:25.652Z,7.17
2022-12-08T13:37:02.205Z,7.50
2022-12-08T13:39:37.054Z,7.20
2022-12-08T13:42:12.476Z,6.63
2022-12-08T13:48:23.567Z,6.90
2022-12-08T13:57:18.478Z,6.57
2022-12-08T13:59:45.389Z,5.70
2022-12-08T14:02:32.994Z,5.50
2022-12-08T14:07:49.660Z,5.50
2022-12-08T14:10:20.262Z,5.60
2022-12-08T14:12:52.570Z,5.83
2022-12-08T14:15:19.426Z,4.97
2022-12-08T14:17:54.551Z,5.20
2022-12-08T14:20:25.638Z,5.30
2022-12-08T14:22:53.230Z,5.27
2022-12-08T14:25:20.502Z,5.53
2022-12-08T14:27:48.100Z,5.80
2022-12-08T14:30:14.772Z,4.77
2022-12-08T14:32:49.485Z,5.30
2022-12-08T14:35:27.376Z,4.70
2022-12-08T14:38:13.971Z,5.10
2022-12-08T14:40:45.374Z,5.07
2022-12-08T14:43:16.051Z,4.93
2022-12-08T14:45:42.312Z,5.70
2022-12-08T14:48:22.840Z,4.77
2022-12-08T14:51:14.446Z,4.77
2022-12-08T14:53:48.004Z,4.43
2022-12-08T14:56:17.339Z,4.33
2022-12-08T14:58:43.922Z,4.40
2022-12-08T15:01:14.427Z,4.63
2022-12-08T15:03:42.752Z,4.47
2022-12-08T15:06:12.332Z,4.97
2022-12-08T15:08:54.018Z,4.30
2022-12-08T15:11:23.442Z,4.10
2022-12-08T15:13:52.886Z,4.00
2022-12-08T15:16:37.575Z,4.30
2022-12-08T15:19:28.390Z,4.00
2022-12-08T15:21:58.010Z,4.00
2022-12-08T15:24:27.270Z,4.20
2022-12-08T15:26:53.979Z,4.13
2022-12-08T15:29:29.323Z,4.50
2022-12-08T15:31:58.113Z,4.20
2022-12-08T15:34:24.949Z,4.43
2022-12-08T15:36:53.247Z,4.43
2022-12-08T15:39:36.004Z,5.27
2022-12-08T15:42:05.820Z,4.63
2022-12-08T15:44:32.834Z,3.87
2022-12-08T15:46:59.959Z,5.30
2022-12-08T15:49:26.966Z,4.23
2022-12-08T15:52:00.611Z,5.10
2022-12-08T15:54:34.484Z,4.63
2022-12-08T15:57:18.990Z,4.63
2022-12-08T15:59:46.968Z,4.97
2022-12-08T16:02:19.293Z,4.53
2022-12-08T16:05:25.662Z,5.10
2022-12-08T16:07:37.852Z,5.10
2022-12-08T16:10:06.152Z,4.53
2022-12-08T16:15:59.060Z,4.67
2022-12-08T16:18:29.877Z,4.27
2022-12-08T16:23:44.896Z,5.10
2022-12-08T16:27:01.110Z,4.70
2022-12-08T16:29:08.197Z,4.93
2022-12-08T16:31:35.130Z,5.93
2022-12-08T16:34:01.591Z,5.00
2022-12-08T16:36:27.915Z,4.43
2022-12-08T16:38:54.327Z,4.37
2022-12-08T16:41:39.427Z,4.67
2022-12-08T16:44:06.638Z,4.77
2022-12-08T16:46:33.613Z,5.30
2022-12-08T16:49:00.070Z,5.97
2022-12-08T16:51:27.549Z,8.80
2022-12-08T16:53:58.164Z,24.80
2022-12-08T16:56:30.581Z,16.97
2022-12-08T16:58:59.501Z,13.20
2022-12-08T17:01:26.008Z,8.60
2022-12-08T17:04:22.389Z,6.73
2022-12-08T17:06:39.151Z,5.07
2022-12-08T17:09:05.671Z,5.00
2022-12-08T17:11:36.186Z,5.00
2022-12-08T17:14:05.745Z,5.53
2022-12-08T17:16:32.146Z,6.03
2022-12-08T17:18:58.649Z,6.83
2022-12-08T17:21:25.106Z,5.57
2022-12-08T17:23:51.524Z,5.30
2022-12-08T17:26:17.903Z,5.17
2022-12-08T17:28:59.923Z,5.63
2022-12-08T17:31:29.925Z,5.90
2022-12-08T17:34:05.279Z,6.23
2022-12-08T17:36:31.933Z,6.23
2022-12-08T17:38:59.347Z,6.53
2022-12-08T17:41:25.808Z,6.07
2022-12-08T17:43:52.239Z,6.50
2022-12-08T17:46:19.325Z,8.47
2022-12-08T17:48:45.977Z,9.83
2022-12-08T17:51:12.302Z,9.20
2022-12-08T17:53:40.540Z,6.77
2022-12-08T17:56:14.922Z,6.97
2022-12-08T17:58:41.332Z,6.40
2022-12-08T18:01:11.446Z,7.80
2022-12-08T18:03:38.918Z,10.20
2022-12-08T18:06:10.509Z,9.27
2022-12-08T18:08:37.382Z,8.77
2022-12-08T18:11:05.476Z,7.37
2022-12-08T18:13:32.138Z,7.40
2022-12-08T18:15:58.500Z,6.00
2022-12-08T18:18:24.944Z,6.60
2022-12-08T18:20:51.370Z,6.90
2022-12-08T18:23:17.789Z,6.90
2022-12-08T18:25:45.252Z,6.57
2022-12-08T18:28:11.678Z,7.43
2022-12-08T18:30:40.271Z,5.53
2022-12-08T18:33:07.893Z,5.80
2022-12-08T18:35:34.321Z,5.67
2022-12-08T18:38:00.619Z,5.27
2022-12-08T18:40:28.040Z,5.40
2022-12-08T18:42:54.363Z,5.40
2022-12-08T18:45:22.610Z,5.23
2022-12-08T18:47:51.135Z,6.40
2022-12-08T18:50:17.900Z,4.80
2022-12-08T18:52:45.771Z,5.60
2022-12-08T18:55:12.210Z,5.60
2022-12-08T18:57:39.873Z,5.50
2022-12-08T19:00:08.707Z,5.53
2022-12-08T19:02:36.196Z,5.80
2022-12-08T19:05:03.123Z,6.93
2022-12-08T19:07:29.521Z,5.73
2022-12-08T19:09:56.164Z,5.10
2022-12-08T19:12:22.664Z,5.43
2022-12-08T19:14:49.055Z,6.33
2022-12-08T19:17:15.430Z,7.27
2022-12-08T19:19:41.925Z,6.10
2022-12-08T19:22:08.342Z,6.17
2022-12-08T19:24:36.479Z,6.40
2022-12-08T19:27:04.145Z,5.67
2022-12-08T19:29:30.626Z,5.40
2022-12-08T19:31:57.504Z,5.67
2022-12-08T19:34:24.409Z,5.40
2022-12-08T19:36:50.889Z,5.07
2022-12-08T19:39:39.103Z,5.70
2022-12-08T19:42:38.388Z,6.20
2022-12-08T19:45:11.752Z,5.53
2022-12-08T19:47:38.907Z,6.53
2022-12-08T19:50:25.139Z,5.67
2022-12-08T19:52:51.462Z,5.73
2022-12-08T19:55:18.245Z,6.00
2022-12-08T19:57:44.672Z,5.30
2022-12-08T20:00:12.875Z,6.50
2022-12-08T20:02:39.290Z,6.10
2022-12-08T20:05:06.128Z,5.60
2022-12-08T20:07:32.583Z,5.47
2022-12-08T20:09:58.887Z,5.50
2022-12-08T20:12:25.334Z,6.03
2022-12-08T20:14:52.109Z,6.20
2022-12-08T20:17:19.371Z,9.23
2022-12-08T20:19:45.805Z,11.47
2022-12-08T20:22:12.111Z,9.63
2022-12-08T20:24:38.582Z,7.57
2022-12-08T20:27:05.140Z,6.90
2022-12-08T20:29:31.548Z,6.13
2022-12-08T20:31:57.949Z,5.70
2022-12-08T20:34:24.484Z,6.83
2022-12-08T20:36:50.891Z,6.37
2022-12-08T20:39:18.500Z,6.03
2022-12-08T20:41:46.215Z,7.17
2022-12-08T20:44:12.604Z,6.00
2022-12-08T20:46:39.359Z,5.13
2022-12-08T20:49:05.831Z,5.37
2022-12-08T20:51:33.320Z,5.63
2022-12-08T20:53:59.900Z,6.00
2022-12-08T20:56:27.155Z,5.93
2022-12-08T20:58:55.445Z,5.40
2022-12-08T21:01:23.593Z,5.67
2022-12-08T21:03:51.143Z,5.50
2022-12-08T21:06:21.958Z,6.00
2022-12-08T21:08:48.606Z,5.60
2022-12-08T21:11:15.665Z,6.20
2022-12-08T21:13:43.169Z,5.57
2022-12-08T21:16:15.606Z,5.77
2022-12-08T21:18:42.231Z,9.30
2022-12-08T21:21:12.269Z,8.93
2022-12-08T21:23:39.337Z,9.30
2022-12-08T21:26:13.738Z,12.60
2022-12-08T21:28:40.695Z,10.23
2022-12-08T21:31:11.252Z,6.60
2022-12-08T21:33:38.415Z,7.03
2022-12-08T21:36:09.460Z,6.47
2022-12-08T21:38:37.226Z,6.67
2022-12-08T21:41:06.031Z,8.60
2022-12-08T21:43:33.170Z,6.37
2022-12-08T21:45:59.547Z,6.73
2022-12-08T21:48:27.021Z,6.77
2022-12-08T21:50:54.688Z,6.17
2022-12-08T21:53:22.516Z,5.90
2022-12-08T21:55:49.439Z,5.57
2022-12-08T21:58:15.913Z,6.17
2022-12-08T22:00:42.807Z,6.23
2022-12-08T22:03:14.094Z,6.13
2022-12-08T22:05:41.498Z,5.73
2022-12-08T22:08:08.333Z,5.83
2022-12-08T22:10:34.969Z,5.97
2022-12-08T22:13:01.419Z,5.90
2022-12-08T22:15:29.759Z,6.43
2022-12-08T22:17:56.570Z,7.17
2022-12-08T22:20:23.799Z,7.00
2022-12-08T22:22:50.352Z,6.13
2022-12-08T22:25:16.895Z,6.70
2022-12-08T22:27:43.577Z,7.37
2022-12-08T22:30:11.040Z,6.30
2022-12-08T22:32:38.459Z,6.93
2022-12-08T22:35:05.583Z,5.80
2022-12-08T22:37:32.225Z,6.23
2022-12-08T22:39:58.694Z,6.77
2022-12-08T22:42:25.111Z,6.43
2022-12-08T22:44:51.496Z,6.57
2022-12-08T22:47:17.840Z,5.73
2022-12-08T22:49:44.242Z,5.70
2022-12-08T22:52:10.572Z,5.97
2022-12-08T22:54:36.932Z,6.47
2022-12-08T22:57:03.807Z,6.37
2022-12-08T22:59:33.315Z,5.73
2022-12-08T23:01:59.873Z,5.97
2022-12-08T23:04:26.582Z,5.90
2022-12-08T23:06:53.135Z,6.53
2022-12-08T23:09:19.628Z,6.20
2022-12-08T23:11:46.278Z,6.57
2022-12-08T23:14:12.879Z,6.80
2022-12-08T23:16:39.419Z,6.17
2022-12-08T23:19:06.150Z,5.43
2022-12-08T23:21:32.806Z,5.93
2022-12-08T23:24:03.095Z,6.80
2022-12-08T23:26:33.078Z,14.13
2022-12-08T23:29:00.068Z,10.47
2022-12-08T23:31:27.264Z,6.00
2022-12-08T23:33:54.711Z,5.70
2022-12-08T23:36:24.908Z,6.40
2022-12-08T23:38:51.919Z,5.97
2022-12-08T23:41:18.448Z,6.43
2022-12-08T23:43:46.869Z,5.63
2022-12-08T23:46:15.663Z,6.30
2022-12-08T23:48:42.772Z,5.73
2022-12-08T23:51:09.487Z,6.40
2022-12-08T23:53:36.098Z,6.43
2022-12-08T23:56:06.209Z,5.53
2022-12-08T23:58:32.920Z,6.03
